sensor_id;sensor_type;location;lat;lon;timestamp;P1;durP1;ratioP1;P2;durP2;ratioP2
77038;SDS011;65970;50.476;4.840;2023-07-22T00:01:29;4.03;;;2.47;;
77038;SDS011;65970;50.476;4.840;2023-07-22T00:06:29;2.25;;;2.03;;
77038;SDS011;65970;50.476;4.840;2023-07-22T00:11:30;2.22;;;2.03;;
77038;SDS011;65970;50.476;4.840;2023-07-22T00:16:30;3.28;;;2.75;;
77038;SDS011;65970;50.476;4.840;2023-07-22T00:21:31;3.63;;;2.97;;
77038;SDS011;65970;50.476;4.840;2023-07-22T00:26:32;3.92;;;2.97;;
77038;SDS011;65970;50.476;4.840;2023-07-22T00:31:32;4.00;;;2.80;;
77038;SDS011;65970;50.476;4.840;2023-07-22T00:36:33;4.82;;;3.20;;
77038;SDS011;65970;50.476;4.840;2023-07-22T00:41:34;2.58;;;2.30;;
77038;SDS011;65970;50.476;4.840;2023-07-22T00:46:34;3.28;;;2.80;;
77038;SDS011;65970;50.476;4.840;2023-07-22T00:51:35;2.47;;;2.17;;
77038;SDS011;65970;50.476;4.840;2023-07-22T00:56:36;5.63;;;2.85;;
77038;SDS011;65970;50.476;4.840;2023-07-22T01:01:36;5.22;;;2.72;;
77038;SDS011;65970;50.476;4.840;2023-07-22T01:06:37;3.60;;;2.67;;
77038;SDS011;65970;50.476;4.840;2023-07-22T01:11:37;3.55;;;3.22;;
77038;SDS011;65970;50.476;4.840;2023-07-22T01:16:38;4.07;;;3.08;;
77038;SDS011;65970;50.476;4.840;2023-07-22T01:21:39;4.22;;;3.22;;
77038;SDS011;65970;50.476;4.840;2023-07-22T01:26:41;3.13;;;2.80;;
77038;SDS011;65970;50.476;4.840;2023-07-22T01:31:43;3.42;;;2.80;;
77038;SDS011;65970;50.476;4.840;2023-07-22T01:36:47;2.47;;;2.28;;
77038;SDS011;65970;50.476;4.840;2023-07-22T01:41:48;3.63;;;2.58;;
77038;SDS011;65970;50.476;4.840;2023-07-22T01:46:49;3.92;;;2.17;;
77038;SDS011;65970;50.476;4.840;2023-07-22T01:51:49;3.10;;;2.72;;
77038;SDS011;65970;50.476;4.840;2023-07-22T01:56:50;3.17;;;2.60;;
77038;SDS011;65970;50.476;4.840;2023-07-22T02:01:50;4.53;;;3.30;;
77038;SDS011;65970;50.476;4.840;2023-07-22T02:06:51;4.45;;;2.88;;
77038;SDS011;65970;50.476;4.840;2023-07-22T02:11:51;4.55;;;2.83;;
77038;SDS011;65970;50.476;4.840;2023-07-22T02:16:52;3.95;;;3.05;;
77038;SDS011;65970;50.476;4.840;2023-07-22T02:21:52;5.57;;;2.78;;
77038;SDS011;65970;50.476;4.840;2023-07-22T02:26:53;5.20;;;3.10;;
77038;SDS011;65970;50.476;4.840;2023-07-22T02:31:54;3.47;;;2.67;;
77038;SDS011;65970;50.476;4.840;2023-07-22T02:36:54;4.57;;;3.13;;
77038;SDS011;65970;50.476;4.840;2023-07-22T02:41:55;3.40;;;2.47;;
77038;SDS011;65970;50.476;4.840;2023-07-22T02:46:55;4.18;;;3.28;;
77038;SDS011;65970;50.476;4.840;2023-07-22T02:51:56;5.03;;;3.08;;
77038;SDS011;65970;50.476;4.840;2023-07-22T02:56:56;4.13;;;3.05;;
77038;SDS011;65970;50.476;4.840;2023-07-22T03:01:57;5.10;;;3.22;;
77038;SDS011;65970;50.476;4.840;2023-07-22T03:06:57;4.68;;;3.33;;
77038;SDS011;65970;50.476;4.840;2023-07-22T03:11:58;4.32;;;3.08;;
77038;SDS011;65970;50.476;4.840;2023-07-22T03:16:58;4.07;;;3.40;;
77038;SDS011;65970;50.476;4.840;2023-07-22T03:21:59;7.07;;;3.70;;
77038;SDS011;65970;50.476;4.840;2023-07-22T03:26:59;3.58;;;2.92;;
77038;SDS011;65970;50.476;4.840;2023-07-22T03:32:00;4.00;;;3.58;;
77038;SDS011;65970;50.476;4.840;2023-07-22T03:37:00;4.72;;;3.08;;
77038;SDS011;65970;50.476;4.840;2023-07-22T03:42:01;4.82;;;3.08;;
77038;SDS011;65970;50.476;4.840;2023-07-22T03:47:02;5.45;;;3.15;;
77038;SDS011;65970;50.476;4.840;2023-07-22T03:52:02;3.85;;;3.10;;
77038;SDS011;65970;50.476;4.840;2023-07-22T03:57:03;4.15;;;3.25;;
77038;SDS011;65970;50.476;4.840;2023-07-22T04:02:04;4.45;;;3.40;;
77038;SDS011;65970;50.476;4.840;2023-07-22T04:07:05;5.00;;;3.53;;
77038;SDS011;65970;50.476;4.840;2023-07-22T04:12:06;4.93;;;3.67;;
77038;SDS011;65970;50.476;4.840;2023-07-22T04:17:07;5.97;;;3.58;;
77038;SDS011;65970;50.476;4.840;2023-07-22T04:22:07;3.63;;;2.97;;
77038;SDS011;65970;50.476;4.840;2023-07-22T04:27:08;6.97;;;3.65;;
77038;SDS011;65970;50.476;4.840;2023-07-22T04:32:08;5.82;;;3.88;;
77038;SDS011;65970;50.476;4.840;2023-07-22T04:37:09;6.03;;;3.70;;
77038;SDS011;65970;50.476;4.840;2023-07-22T04:42:09;5.97;;;3.17;;
77038;SDS011;65970;50.476;4.840;2023-07-22T04:47:10;4.60;;;3.33;;
77038;SDS011;65970;50.476;4.840;2023-07-22T04:52:11;4.10;;;3.40;;
77038;SDS011;65970;50.476;4.840;2023-07-22T04:57:11;5.13;;;3.50;;
77038;SDS011;65970;50.476;4.840;2023-07-22T05:02:12;4.60;;;3.40;;
77038;SDS011;65970;50.476;4.840;2023-07-22T05:07:12;5.15;;;4.18;;
77038;SDS011;65970;50.476;4.840;2023-07-22T05:12:14;8.20;;;3.92;;
77038;SDS011;65970;50.476;4.840;2023-07-22T05:17:14;5.80;;;3.35;;
77038;SDS011;65970;50.476;4.840;2023-07-22T05:22:15;4.95;;;3.65;;
77038;SDS011;65970;50.476;4.840;2023-07-22T05:27:16;6.45;;;4.55;;
77038;SDS011;65970;50.476;4.840;2023-07-22T05:32:17;7.10;;;4.38;;
77038;SDS011;65970;50.476;4.840;2023-07-22T05:37:18;6.65;;;4.30;;
77038;SDS011;65970;50.476;4.840;2023-07-22T05:42:18;4.38;;;3.40;;
77038;SDS011;65970;50.476;4.840;2023-07-22T05:47:19;5.60;;;3.80;;
77038;SDS011;65970;50.476;4.840;2023-07-22T05:52:19;6.40;;;3.85;;
77038;SDS011;65970;50.476;4.840;2023-07-22T05:57:20;6.63;;;4.03;;
77038;SDS011;65970;50.476;4.840;2023-07-22T06:02:21;8.32;;;4.53;;
77038;SDS011;65970;50.476;4.840;2023-07-22T06:07:21;7.15;;;4.38;;
77038;SDS011;65970;50.476;4.840;2023-07-22T06:12:22;5.80;;;4.07;;
77038;SDS011;65970;50.476;4.840;2023-07-22T06:17:22;8.82;;;4.68;;
77038;SDS011;65970;50.476;4.840;2023-07-22T06:22:23;8.48;;;4.55;;
77038;SDS011;65970;50.476;4.840;2023-07-22T06:27:23;8.55;;;4.13;;
77038;SDS011;65970;50.476;4.840;2023-07-22T06:32:24;7.07;;;4.07;;
77038;SDS011;65970;50.476;4.840;2023-07-22T06:37:25;6.97;;;4.25;;
77038;SDS011;65970;50.476;4.840;2023-07-22T06:42:25;4.78;;;3.53;;
77038;SDS011;65970;50.476;4.840;2023-07-22T06:47:26;5.43;;;3.28;;
77038;SDS011;65970;50.476;4.840;2023-07-22T06:52:26;7.40;;;2.75;;
77038;SDS011;65970;50.476;4.840;2023-07-22T06:57:28;5.68;;;2.10;;
77038;SDS011;65970;50.476;4.840;2023-07-22T07:02:29;3.03;;;2.40;;
77038;SDS011;65970;50.476;4.840;2023-07-22T07:07:29;6.82;;;2.30;;
77038;SDS011;65970;50.476;4.840;2023-07-22T07:12:30;4.32;;;3.10;;
77038;SDS011;65970;50.476;4.840;2023-07-22T07:17:30;4.97;;;2.42;;
77038;SDS011;65970;50.476;4.840;2023-07-22T07:22:31;3.85;;;1.85;;
77038;SDS011;65970;50.476;4.840;2023-07-22T07:27:31;2.53;;;1.23;;
77038;SDS011;65970;50.476;4.840;2023-07-22T07:32:32;2.30;;;1.52;;
77038;SDS011;65970;50.476;4.840;2023-07-22T07:37:33;2.67;;;1.40;;
77038;SDS011;65970;50.476;4.840;2023-07-22T07:42:33;2.13;;;1.50;;
77038;SDS011;65970;50.476;4.840;2023-07-22T07:47:34;3.70;;;1.60;;
77038;SDS011;65970;50.476;4.840;2023-07-22T07:52:34;3.05;;;1.63;;
77038;SDS011;65970;50.476;4.840;2023-07-22T07:57:35;3.90;;;1.42;;
77038;SDS011;65970;50.476;4.840;2023-07-22T08:02:35;2.17;;;1.38;;
77038;SDS011;65970;50.476;4.840;2023-07-22T08:07:36;4.50;;;1.80;;
77038;SDS011;65970;50.476;4.840;2023-07-22T08:12:36;1.88;;;1.38;;
77038;SDS011;65970;50.476;4.840;2023-07-22T08:17:37;3.60;;;1.48;;
77038;SDS011;65970;50.476;4.840;2023-07-22T08:22:37;1.77;;;1.10;;
77038;SDS011;65970;50.476;4.840;2023-07-22T08:27:38;4.97;;;1.75;;
77038;SDS011;65970;50.476;4.840;2023-07-22T08:32:38;1.75;;;1.52;;
77038;SDS011;65970;50.476;4.840;2023-07-22T08:37:39;2.45;;;1.33;;
77038;SDS011;65970;50.476;4.840;2023-07-22T08:42:40;2.85;;;1.23;;
77038;SDS011;65970;50.476;4.840;2023-07-22T08:47:47;4.38;;;1.30;;
77038;SDS011;65970;50.476;4.840;2023-07-22T08:52:51;2.30;;;1.20;;
77038;SDS011;65970;50.476;4.840;2023-07-22T08:57:51;1.40;;;1.15;;
77038;SDS011;65970;50.476;4.840;2023-07-22T09:02:53;1.90;;;1.10;;
77038;SDS011;65970;50.476;4.840;2023-07-22T09:07:55;2.83;;;1.40;;
77038;SDS011;65970;50.476;4.840;2023-07-22T09:12:57;4.40;;;1.52;;
77038;SDS011;65970;50.476;4.840;2023-07-22T09:17:59;4.05;;;1.25;;
77038;SDS011;65970;50.476;4.840;2023-07-22T09:23:00;1.77;;;0.88;;
77038;SDS011;65970;50.476;4.840;2023-07-22T09:28:00;3.45;;;1.38;;
77038;SDS011;65970;50.476;4.840;2023-07-22T09:33:02;2.97;;;1.48;;
77038;SDS011;65970;50.476;4.840;2023-07-22T09:38:05;1.50;;;1.40;;
77038;SDS011;65970;50.476;4.840;2023-07-22T09:43:05;3.83;;;1.30;;
77038;SDS011;65970;50.476;4.840;2023-07-22T09:48:09;1.25;;;1.05;;
77038;SDS011;65970;50.476;4.840;2023-07-22T09:53:10;2.90;;;1.30;;
77038;SDS011;65970;50.476;4.840;2023-07-22T09:58:15;3.80;;;1.52;;
77038;SDS011;65970;50.476;4.840;2023-07-22T10:03:16;1.40;;;1.05;;
77038;SDS011;65970;50.476;4.840;2023-07-22T10:08:19;2.33;;;1.40;;
77038;SDS011;65970;50.476;4.840;2023-07-22T10:18:24;1.75;;;1.02;;
77038;SDS011;65970;50.476;4.840;2023-07-22T10:23:25;2.58;;;1.00;;
77038;SDS011;65970;50.476;4.840;2023-07-22T10:28:26;1.23;;;1.05;;
77038;SDS011;65970;50.476;4.840;2023-07-22T10:33:29;1.70;;;1.35;;
77038;SDS011;65970;50.476;4.840;2023-07-22T10:38:29;2.97;;;0.98;;
77038;SDS011;65970;50.476;4.840;2023-07-22T10:43:31;3.10;;;1.08;;
77038;SDS011;65970;50.476;4.840;2023-07-22T10:48:39;3.33;;;1.08;;
77038;SDS011;65970;50.476;4.840;2023-07-22T10:53:41;1.25;;;0.90;;
77038;SDS011;65970;50.476;4.840;2023-07-22T11:09:06;1.40;;;1.13;;
77038;SDS011;65970;50.476;4.840;2023-07-22T11:14:16;2.25;;;1.13;;
77038;SDS011;65970;50.476;4.840;2023-07-22T11:19:21;1.40;;;1.10;;
77038;SDS011;65970;50.476;4.840;2023-07-22T11:24:23;1.92;;;0.95;;
77038;SDS011;65970;50.476;4.840;2023-07-22T11:29:24;5.78;;;1.10;;
77038;SDS011;65970;50.476;4.840;2023-07-22T11:34:25;1.17;;;0.90;;
77038;SDS011;65970;50.476;4.840;2023-07-22T11:39:26;1.67;;;1.30;;
77038;SDS011;65970;50.476;4.840;2023-07-22T11:44:27;2.80;;;1.25;;
77038;SDS011;65970;50.476;4.840;2023-07-22T11:54:40;2.88;;;1.30;;
77038;SDS011;65970;50.476;4.840;2023-07-22T11:59:45;4.95;;;1.40;;
77038;SDS011;65970;50.476;4.840;2023-07-22T12:04:59;3.00;;;1.30;;
77038;SDS011;65970;50.476;4.840;2023-07-22T12:10:02;1.60;;;1.00;;
77038;SDS011;65970;50.476;4.840;2023-07-22T12:15:18;2.08;;;1.05;;
77038;SDS011;65970;50.476;4.840;2023-07-22T12:20:23;3.17;;;1.27;;
77038;SDS011;65970;50.476;4.840;2023-07-22T12:25:31;2.33;;;1.30;;
77038;SDS011;65970;50.476;4.840;2023-07-22T12:30:32;3.83;;;1.33;;
77038;SDS011;65970;50.476;4.840;2023-07-22T12:35:33;2.38;;;1.05;;
77038;SDS011;65970;50.476;4.840;2023-07-22T12:40:33;3.85;;;1.65;;
77038;SDS011;65970;50.476;4.840;2023-07-22T12:45:34;3.53;;;1.33;;
77038;SDS011;65970;50.476;4.840;2023-07-22T12:50:34;2.10;;;1.52;;
77038;SDS011;65970;50.476;4.840;2023-07-22T12:55:35;1.98;;;1.20;;
77038;SDS011;65970;50.476;4.840;2023-07-22T13:00:35;2.00;;;1.83;;
77038;SDS011;65970;50.476;4.840;2023-07-22T13:05:36;4.88;;;1.80;;
77038;SDS011;65970;50.476;4.840;2023-07-22T13:10:37;2.15;;;1.30;;
77038;SDS011;65970;50.476;4.840;2023-07-22T13:15:37;6.28;;;1.90;;
77038;SDS011;65970;50.476;4.840;2023-07-22T13:20:38;2.88;;;1.48;;
77038;SDS011;65970;50.476;4.840;2023-07-22T13:25:38;3.67;;;1.60;;
77038;SDS011;65970;50.476;4.840;2023-07-22T13:30:39;2.83;;;1.70;;
77038;SDS011;65970;50.476;4.840;2023-07-22T13:35:39;1.40;;;1.30;;
77038;SDS011;65970;50.476;4.840;2023-07-22T13:40:40;3.70;;;1.70;;
77038;SDS011;65970;50.476;4.840;2023-07-22T13:45:41;2.20;;;1.33;;
77038;SDS011;65970;50.476;4.840;2023-07-22T13:50:41;1.75;;;1.17;;
77038;SDS011;65970;50.476;4.840;2023-07-22T13:55:42;1.50;;;1.27;;
77038;SDS011;65970;50.476;4.840;2023-07-22T14:00:42;3.38;;;1.65;;
77038;SDS011;65970;50.476;4.840;2023-07-22T14:05:43;3.47;;;1.10;;
77038;SDS011;65970;50.476;4.840;2023-07-22T14:10:43;2.38;;;1.40;;
77038;SDS011;65970;50.476;4.840;2023-07-22T14:15:44;2.70;;;2.10;;
77038;SDS011;65970;50.476;4.840;2023-07-22T14:20:44;4.55;;;1.70;;
77038;SDS011;65970;50.476;4.840;2023-07-22T14:25:46;2.95;;;2.40;;
77038;SDS011;65970;50.476;4.840;2023-07-22T14:30:46;1.67;;;1.15;;
77038;SDS011;65970;50.476;4.840;2023-07-22T14:35:47;1.63;;;0.95;;
77038;SDS011;65970;50.476;4.840;2023-07-22T14:40:47;4.07;;;1.40;;
77038;SDS011;65970;50.476;4.840;2023-07-22T14:45:48;4.10;;;1.38;;
77038;SDS011;65970;50.476;4.840;2023-07-22T14:50:48;3.55;;;1.30;;
77038;SDS011;65970;50.476;4.840;2023-07-22T14:55:49;1.55;;;1.15;;
77038;SDS011;65970;50.476;4.840;2023-07-22T15:00:49;3.22;;;1.48;;
77038;SDS011;65970;50.476;4.840;2023-07-22T15:05:50;3.92;;;1.40;;
77038;SDS011;65970;50.476;4.840;2023-07-22T15:10:51;2.05;;;1.20;;
77038;SDS011;65970;50.476;4.840;2023-07-22T15:15:53;1.58;;;1.30;;
77038;SDS011;65970;50.476;4.840;2023-07-22T15:20:54;2.30;;;2.10;;
77038;SDS011;65970;50.476;4.840;2023-07-22T15:25:54;1.92;;;1.17;;
77038;SDS011;65970;50.476;4.840;2023-07-22T15:30:55;4.57;;;1.10;;
77038;SDS011;65970;50.476;4.840;2023-07-22T15:35:55;2.28;;;1.60;;
77038;SDS011;65970;50.476;4.840;2023-07-22T15:40:56;4.85;;;1.58;;
77038;SDS011;65970;50.476;4.840;2023-07-22T15:45:56;2.47;;;1.48;;
77038;SDS011;65970;50.476;4.840;2023-07-22T15:50:57;5.35;;;1.40;;
77038;SDS011;65970;50.476;4.840;2023-07-22T15:55:58;2.33;;;1.25;;
77038;SDS011;65970;50.476;4.840;2023-07-22T16:00:58;2.55;;;1.50;;
77038;SDS011;65970;50.476;4.840;2023-07-22T16:05:59;1.75;;;1.30;;
77038;SDS011;65970;50.476;4.840;2023-07-22T16:10:59;2.30;;;1.38;;
77038;SDS011;65970;50.476;4.840;2023-07-22T16:16:01;2.05;;;1.77;;
77038;SDS011;65970;50.476;4.840;2023-07-22T16:21:01;2.85;;;1.63;;
77038;SDS011;65970;50.476;4.840;2023-07-22T16:26:02;4.20;;;2.25;;
77038;SDS011;65970;50.476;4.840;2023-07-22T16:31:02;2.10;;;1.58;;
77038;SDS011;65970;50.476;4.840;2023-07-22T16:36:03;3.60;;;1.60;;
77038;SDS011;65970;50.476;4.840;2023-07-22T16:41:04;4.05;;;2.28;;
77038;SDS011;65970;50.476;4.840;2023-07-22T16:46:04;3.13;;;1.50;;
77038;SDS011;65970;50.476;4.840;2023-07-22T16:51:05;4.40;;;1.70;;
77038;SDS011;65970;50.476;4.840;2023-07-22T16:56:06;4.47;;;1.73;;
77038;SDS011;65970;50.476;4.840;2023-07-22T17:01:06;5.85;;;1.85;;
77038;SDS011;65970;50.476;4.840;2023-07-22T17:06:07;3.08;;;1.85;;
77038;SDS011;65970;50.476;4.840;2023-07-22T17:11:07;3.95;;;2.58;;
77038;SDS011;65970;50.476;4.840;2023-07-22T17:16:08;3.60;;;2.83;;
77038;SDS011;65970;50.476;4.840;2023-07-22T17:21:08;5.65;;;2.03;;
77038;SDS011;65970;50.476;4.840;2023-07-22T17:26:09;4.03;;;2.13;;
77038;SDS011;65970;50.476;4.840;2023-07-22T17:31:09;5.13;;;2.50;;
77038;SDS011;65970;50.476;4.840;2023-07-22T17:36:10;3.33;;;2.40;;
77038;SDS011;65970;50.476;4.840;2023-07-22T17:41:10;5.93;;;2.22;;
77038;SDS011;65970;50.476;4.840;2023-07-22T17:46:11;4.82;;;2.00;;
77038;SDS011;65970;50.476;4.840;2023-07-22T17:51:12;3.65;;;2.10;;
77038;SDS011;65970;50.476;4.840;2023-07-22T17:56:12;5.40;;;2.05;;
77038;SDS011;65970;50.476;4.840;2023-07-22T18:01:13;2.72;;;1.80;;
77038;SDS011;65970;50.476;4.840;2023-07-22T18:06:14;3.35;;;2.13;;
77038;SDS011;65970;50.476;4.840;2023-07-22T18:11:15;4.20;;;2.22;;
77038;SDS011;65970;50.476;4.840;2023-07-22T18:16:16;4.38;;;1.90;;
77038;SDS011;65970;50.476;4.840;2023-07-22T18:21:16;4.07;;;1.50;;
77038;SDS011;65970;50.476;4.840;2023-07-22T18:26:17;3.63;;;1.90;;
77038;SDS011;65970;50.476;4.840;2023-07-22T18:31:17;2.42;;;1.90;;
77038;SDS011;65970;50.476;4.840;2023-07-22T18:36:18;2.40;;;1.52;;
77038;SDS011;65970;50.476;4.840;2023-07-22T18:41:18;1.92;;;1.30;;
77038;SDS011;65970;50.476;4.840;2023-07-22T18:46:19;1.98;;;1.30;;
77038;SDS011;65970;50.476;4.840;2023-07-22T18:51:21;2.40;;;1.60;;
77038;SDS011;65970;50.476;4.840;2023-07-22T18:56:21;2.42;;;1.45;;
77038;SDS011;65970;50.476;4.840;2023-07-22T19:01:22;4.78;;;1.38;;
77038;SDS011;65970;50.476;4.840;2023-07-22T19:06:22;2.28;;;1.35;;
77038;SDS011;65970;50.476;4.840;2023-07-22T19:11:23;2.35;;;1.30;;
77038;SDS011;65970;50.476;4.840;2023-07-22T19:16:24;2.55;;;1.25;;
77038;SDS011;65970;50.476;4.840;2023-07-22T19:21:25;6.15;;;1.70;;
77038;SDS011;65970;50.476;4.840;2023-07-22T19:26:26;2.25;;;1.52;;
77038;SDS011;65970;50.476;4.840;2023-07-22T19:31:26;2.28;;;1.60;;
77038;SDS011;65970;50.476;4.840;2023-07-22T19:36:27;2.95;;;1.50;;
77038;SDS011;65970;50.476;4.840;2023-07-22T19:41:27;2.15;;;1.45;;
77038;SDS011;65970;50.476;4.840;2023-07-22T19:46:28;4.18;;;1.20;;
77038;SDS011;65970;50.476;4.840;2023-07-22T19:51:28;2.13;;;1.30;;
77038;SDS011;65970;50.476;4.840;2023-07-22T19:56:29;1.70;;;1.10;;
77038;SDS011;65970;50.476;4.840;2023-07-22T20:01:29;3.25;;;1.30;;
77038;SDS011;65970;50.476;4.840;2023-07-22T20:06:30;1.63;;;1.48;;
77038;SDS011;65970;50.476;4.840;2023-07-22T20:11:30;3.15;;;1.48;;
77038;SDS011;65970;50.476;4.840;2023-07-22T20:16:31;2.35;;;1.15;;
77038;SDS011;65970;50.476;4.840;2023-07-22T20:21:32;1.85;;;1.10;;
77038;SDS011;65970;50.476;4.840;2023-07-22T20:26:32;4.00;;;1.20;;
77038;SDS011;65970;50.476;4.840;2023-07-22T20:31:33;1.65;;;1.10;;
77038;SDS011;65970;50.476;4.840;2023-07-22T20:36:33;6.68;;;1.75;;
77038;SDS011;65970;50.476;4.840;2023-07-22T20:41:34;4.00;;;1.25;;
77038;SDS011;65970;50.476;4.840;2023-07-22T20:46:34;1.92;;;1.48;;
77038;SDS011;65970;50.476;4.840;2023-07-22T20:51:35;3.47;;;1.45;;
77038;SDS011;65970;50.476;4.840;2023-07-22T20:56:35;2.38;;;1.35;;
77038;SDS011;65970;50.476;4.840;2023-07-22T21:01:36;2.00;;;1.80;;
77038;SDS011;65970;50.476;4.840;2023-07-22T21:06:36;1.98;;;1.30;;
77038;SDS011;65970;50.476;4.840;2023-07-22T21:11:37;1.77;;;1.25;;
77038;SDS011;65970;50.476;4.840;2023-07-22T21:16:37;1.92;;;1.20;;
77038;SDS011;65970;50.476;4.840;2023-07-22T21:21:38;1.17;;;1.08;;
77038;SDS011;65970;50.476;4.840;2023-07-22T21:26:39;2.00;;;1.35;;
77038;SDS011;65970;50.476;4.840;2023-07-22T21:31:39;1.63;;;0.90;;
77038;SDS011;65970;50.476;4.840;2023-07-22T21:36:40;4.68;;;1.38;;
77038;SDS011;65970;50.476;4.840;2023-07-22T21:41:40;1.65;;;1.25;;
77038;SDS011;65970;50.476;4.840;2023-07-22T21:46:41;1.23;;;1.13;;
77038;SDS011;65970;50.476;4.840;2023-07-22T21:51:41;2.08;;;1.20;;
77038;SDS011;65970;50.476;4.840;2023-07-22T21:56:42;2.33;;;1.20;;
77038;SDS011;65970;50.476;4.840;2023-07-22T22:01:42;2.10;;;1.40;;
77038;SDS011;65970;50.476;4.840;2023-07-22T22:06:43;1.45;;;0.90;;
77038;SDS011;65970;50.476;4.840;2023-07-22T22:11:43;4.82;;;1.10;;
77038;SDS011;65970;50.476;4.840;2023-07-22T22:16:44;7.07;;;1.65;;
77038;SDS011;65970;50.476;4.840;2023-07-22T22:21:44;2.08;;;1.33;;
77038;SDS011;65970;50.476;4.840;2023-07-22T22:26:45;2.80;;;1.23;;
77038;SDS011;65970;50.476;4.840;2023-07-22T22:31:45;4.43;;;1.80;;
77038;SDS011;65970;50.476;4.840;2023-07-22T22:36:46;1.90;;;1.10;;
77038;SDS011;65970;50.476;4.840;2023-07-22T22:41:47;2.10;;;1.40;;
77038;SDS011;65970;50.476;4.840;2023-07-22T22:46:47;6.25;;;1.77;;
77038;SDS011;65970;50.476;4.840;2023-07-22T22:51:48;2.22;;;1.38;;
77038;SDS011;65970;50.476;4.840;2023-07-22T22:56:48;2.17;;;1.83;;
77038;SDS011;65970;50.476;4.840;2023-07-22T23:01:49;2.17;;;1.80;;
77038;SDS011;65970;50.476;4.840;2023-07-22T23:06:49;2.17;;;1.65;;
77038;SDS011;65970;50.476;4.840;2023-07-22T23:11:50;2.03;;;1.40;;
77038;SDS011;65970;50.476;4.840;2023-07-22T23:16:50;2.60;;;1.83;;
77038;SDS011;65970;50.476;4.840;2023-07-22T23:21:51;3.45;;;1.77;;
77038;SDS011;65970;50.476;4.840;2023-07-22T23:26:51;6.22;;;1.98;;
77038;SDS011;65970;50.476;4.840;2023-07-22T23:31:52;3.33;;;2.55;;
77038;SDS011;65970;50.476;4.840;2023-07-22T23:36:52;4.35;;;2.47;;
77038;SDS011;65970;50.476;4.840;2023-07-22T23:41:53;3.60;;;2.17;;
77038;SDS011;65970;50.476;4.840;2023-07-22T23:46:54;2.63;;;2.28;;
77038;SDS011;65970;50.476;4.840;2023-07-22T23:51:54;2.80;;;2.03;;
77038;SDS011;65970;50.476;4.840;2023-07-22T23:56:55;2.30;;;1.90;;
